createdAt,value
2018-06-04T00:01:23.646Z,17.41
2018-06-04T00:03:54.686Z,17.65
2018-06-04T00:06:25.874Z,17.75
2018-06-04T00:08:57.157Z,17.83
2018-06-04T00:11:28.301Z,17.77
2018-06-04T00:13:59.704Z,17.72
2018-06-04T00:16:40.223Z,17.82
2018-06-04T00:19:11.665Z,17.76
2018-06-04T00:21:42.831Z,17.57
2018-06-04T00:24:14.206Z,17.39
2018-06-04T00:26:45.328Z,17.56
2018-06-04T00:29:16.388Z,17.43
2018-06-04T00:31:47.644Z,17.42
2018-06-04T00:34:18.769Z,17.45
2018-06-04T00:36:49.818Z,17.42
2018-06-04T00:39:20.993Z,17.39
2018-06-04T00:41:52.089Z,17.32
2018-06-04T00:44:23.199Z,17.24
2018-06-04T00:46:54.476Z,16.48
2018-06-04T00:49:25.516Z,16.67
2018-06-04T00:51:56.540Z,17.10
2018-06-04T00:54:27.749Z,17.25
2018-06-04T00:56:58.845Z,17.21
2018-06-04T00:59:29.983Z,17.13
2018-06-04T01:02:01.173Z,17.33
2018-06-04T01:04:33.727Z,17.13
2018-06-04T01:07:04.848Z,16.92
2018-06-04T01:09:36.228Z,17.05
2018-06-04T01:12:12.697Z,16.94
2018-06-04T01:14:44.226Z,16.98
2018-06-04T01:17:15.269Z,16.98
2018-06-04T01:19:46.408Z,16.82
2018-06-04T01:22:17.467Z,16.39
2018-06-04T01:24:48.590Z,16.81
2018-06-04T01:27:19.606Z,16.70
2018-06-04T01:29:50.796Z,16.35
2018-06-04T01:32:21.995Z,16.57
2018-06-04T01:34:53.476Z,16.64
2018-06-04T01:37:24.516Z,16.75
2018-06-04T01:39:55.861Z,16.72
2018-06-04T01:42:26.939Z,16.84
2018-06-04T01:44:58.168Z,16.75
2018-06-04T01:47:29.273Z,16.52
2018-06-04T01:50:00.485Z,16.67
2018-06-04T01:52:32.784Z,16.61
2018-06-04T01:55:03.976Z,16.60
2018-06-04T01:57:35.237Z,16.30
2018-06-04T02:00:30.202Z,16.45
2018-06-04T02:03:01.285Z,16.46
2018-06-04T02:05:32.578Z,16.33
2018-06-04T02:08:03.672Z,16.11
2018-06-04T02:10:34.778Z,16.34
2018-06-04T02:13:06.005Z,16.37
2018-06-04T02:15:37.125Z,16.28
2018-06-04T02:18:08.504Z,16.31
2018-06-04T02:20:40.171Z,16.50
2018-06-04T02:23:11.320Z,16.56
2018-06-04T02:25:42.413Z,16.68
2018-06-04T02:28:13.544Z,16.51
2018-06-04T02:30:44.954Z,16.34
2018-06-04T02:33:25.357Z,16.52
2018-06-04T02:35:56.374Z,16.46
2018-06-04T02:38:27.397Z,16.39
2018-06-04T02:40:58.486Z,16.52
2018-06-04T02:43:29.688Z,16.53
2018-06-04T02:46:03.229Z,16.50
2018-06-04T02:48:34.469Z,16.49
2018-06-04T02:51:05.620Z,16.39
2018-06-04T02:53:36.712Z,16.00
2018-06-04T02:56:08.165Z,16.26
2018-06-04T02:58:39.352Z,16.39
2018-06-04T03:01:29.499Z,16.52
2018-06-04T03:04:00.590Z,16.38
2018-06-04T03:06:31.710Z,16.34
2018-06-04T03:09:02.921Z,16.32
2018-06-04T03:11:34.117Z,16.20
2018-06-04T03:14:06.136Z,16.32
2018-06-04T03:16:37.496Z,15.63
2018-06-04T03:19:08.808Z,15.55
2018-06-04T03:21:39.996Z,14.95
2018-06-04T03:24:11.021Z,14.95
2018-06-04T03:26:42.469Z,15.57
2018-06-04T03:29:13.516Z,15.82
2018-06-04T03:31:44.473Z,15.84
2018-06-04T03:34:15.576Z,15.98
2018-06-04T03:36:46.620Z,16.02
2018-06-04T03:39:17.780Z,15.94
2018-06-04T03:41:49.203Z,15.99
2018-06-04T03:44:20.180Z,15.54
2018-06-04T03:46:51.123Z,15.93
2018-06-04T03:49:27.100Z,16.13
2018-06-04T03:51:58.270Z,16.06
2018-06-04T03:54:29.354Z,16.01
2018-06-04T03:57:00.439Z,16.22
2018-06-04T03:59:31.547Z,16.30
2018-06-04T04:02:02.728Z,16.39
2018-06-04T04:04:33.761Z,16.29
2018-06-04T04:08:07.744Z,16.18
2018-06-04T04:10:38.885Z,16.35
2018-06-04T04:13:10.259Z,16.42
2018-06-04T04:15:41.193Z,16.50
2018-06-04T04:18:12.315Z,16.34
2018-06-04T04:20:43.539Z,16.34
2018-06-04T04:23:14.726Z,16.52
2018-06-04T04:25:45.750Z,16.41
2018-06-04T04:28:16.697Z,16.56
2018-06-04T04:30:47.873Z,16.60
2018-06-04T04:33:19.174Z,16.66
2018-06-04T04:35:50.032Z,16.83
2018-06-04T04:38:21.220Z,16.57
2018-06-04T04:40:52.241Z,16.50
2018-06-04T04:43:23.262Z,16.81
2018-06-04T04:45:54.623Z,17.05
2018-06-04T04:48:25.936Z,17.04
2018-06-04T04:50:56.966Z,17.10
2018-06-04T04:53:28.077Z,17.11
2018-06-04T04:55:59.173Z,16.99
2018-06-04T04:58:30.291Z,17.08
2018-06-04T05:01:01.393Z,17.22
2018-06-04T05:03:32.516Z,17.52
2018-06-04T05:06:03.648Z,17.48
2018-06-04T05:08:35.571Z,17.39
2018-06-04T05:11:06.619Z,17.49
2018-06-04T05:13:37.672Z,17.51
2018-06-04T05:16:08.863Z,17.69
2018-06-04T05:18:40.000Z,17.93
2018-06-04T05:21:11.032Z,17.94
2018-06-04T05:23:48.813Z,17.87
2018-06-04T05:26:19.755Z,18.08
2018-06-04T05:28:51.328Z,18.22
2018-06-04T05:31:22.450Z,18.41
2018-06-04T05:33:53.694Z,18.17
2018-06-04T05:36:24.772Z,18.31
2018-06-04T05:38:56.093Z,18.40
2018-06-04T05:41:27.161Z,18.70
2018-06-04T05:43:58.288Z,18.73
2018-06-04T05:46:38.328Z,18.83
2018-06-04T05:49:09.463Z,18.76
2018-06-04T05:51:40.584Z,19.04
2018-06-04T05:54:12.061Z,19.17
2018-06-04T05:56:42.894Z,19.15
2018-06-04T05:59:13.777Z,19.40
2018-06-04T06:01:44.591Z,19.47
2018-06-04T06:04:15.727Z,19.60
2018-06-04T06:06:46.548Z,19.72
2018-06-04T06:09:17.656Z,19.80
2018-06-04T06:11:54.305Z,19.44
2018-06-04T06:14:25.538Z,19.69
2018-06-04T06:16:56.640Z,19.75
2018-06-04T06:19:28.098Z,19.99
2018-06-04T06:21:59.349Z,19.91
2018-06-04T06:24:45.316Z,20.29
2018-06-04T06:27:16.488Z,20.57
2018-06-04T06:29:47.668Z,20.82
2018-06-04T06:32:18.777Z,20.70
2018-06-04T06:34:50.129Z,20.91
2018-06-04T06:37:21.220Z,20.95
2018-06-04T06:39:52.885Z,21.11
2018-06-04T06:42:24.253Z,20.88
2018-06-04T06:44:56.108Z,21.13
2018-06-04T06:47:27.162Z,21.11
2018-06-04T06:49:58.287Z,21.23
2018-06-04T06:52:29.232Z,21.37
2018-06-04T06:55:00.496Z,21.46
2018-06-04T06:57:31.692Z,21.64
2018-06-04T07:00:03.118Z,21.87
2018-06-04T07:02:45.254Z,21.95
2018-06-04T07:05:16.635Z,22.07
2018-06-04T07:07:47.865Z,22.07
2018-06-04T07:10:23.092Z,22.13
2018-06-04T07:12:54.509Z,22.27
2018-06-04T07:15:25.630Z,21.95
2018-06-04T07:17:56.908Z,21.93
2018-06-04T07:20:27.921Z,21.88
2018-06-04T07:22:59.140Z,22.10
2018-06-04T07:25:30.324Z,22.21
2018-06-04T07:28:01.457Z,22.43
2018-06-04T07:30:32.867Z,22.24
2018-06-04T07:33:04.057Z,22.30
2018-06-04T07:35:35.100Z,22.32
2018-06-04T07:38:06.336Z,22.14
2018-06-04T07:40:37.599Z,22.47
2018-06-04T07:43:10.152Z,22.16
2018-06-04T07:45:41.656Z,22.26
2018-06-04T07:48:12.844Z,22.30
2018-06-04T17:48:52.152Z,25.21
2018-06-04T17:51:24.898Z,24.96
2018-06-04T17:54:10.082Z,25.02
2018-06-04T17:56:41.339Z,25.21
2018-06-04T17:59:13.815Z,25.11
2018-06-04T18:02:01.866Z,25.03
2018-06-04T18:04:34.428Z,24.78
2018-06-04T18:07:05.624Z,24.47
2018-06-04T18:09:37.470Z,24.81
2018-06-04T18:12:11.474Z,24.73
2018-06-04T18:14:43.674Z,24.84
2018-06-04T18:17:22.470Z,24.63
2018-06-04T18:19:54.965Z,24.96
2018-06-04T18:22:30.858Z,24.64
2018-06-04T18:25:03.176Z,24.28
2018-06-04T18:27:36.347Z,24.41
2018-06-04T18:30:08.899Z,24.25
2018-06-04T18:32:40.450Z,24.41
2018-06-04T18:35:13.408Z,24.49
2018-06-04T18:37:44.591Z,24.74
2018-06-04T18:40:15.832Z,24.78
2018-06-04T18:43:04.382Z,24.57
2018-06-04T18:45:35.843Z,24.59
2018-06-04T18:48:06.732Z,24.49
2018-06-04T18:50:37.975Z,24.40
2018-06-04T18:53:09.348Z,24.28
2018-06-04T18:55:40.534Z,23.91
2018-06-04T18:58:11.772Z,24.06
2018-06-04T19:00:43.404Z,24.19
2018-06-04T19:03:14.570Z,24.07
2018-06-04T19:05:45.821Z,23.78
2018-06-04T19:08:18.493Z,23.76
2018-06-04T19:10:49.914Z,23.77
2018-06-04T19:13:31.191Z,23.78
2018-06-04T19:16:04.221Z,23.74
2018-06-04T19:18:36.048Z,23.67
2018-06-04T19:21:07.199Z,23.73
2018-06-04T19:23:38.236Z,23.64
2018-06-04T19:26:10.867Z,23.63
2018-06-04T19:28:41.972Z,23.46
2018-06-04T19:31:13.277Z,23.48
2018-06-04T19:33:44.265Z,23.26
2018-06-04T19:36:15.320Z,23.21
2018-06-04T19:38:46.417Z,23.13
2018-06-04T19:41:17.615Z,23.06
2018-06-04T19:43:48.864Z,22.84
2018-06-04T19:46:25.535Z,22.62
2018-06-04T19:48:57.180Z,22.52
2018-06-04T19:51:29.421Z,22.38
2018-06-04T19:54:02.308Z,22.43
2018-06-04T19:56:35.755Z,22.57
2018-06-04T19:59:07.103Z,22.28
2018-06-04T20:01:38.146Z,22.24
2018-06-04T20:04:12.024Z,22.18
2018-06-04T20:06:43.812Z,22.09
2018-06-04T20:09:14.948Z,22.08
2018-06-04T20:11:46.461Z,21.94
2018-06-04T20:14:17.553Z,21.81
2018-06-04T20:16:48.697Z,21.65
2018-06-04T20:19:39.550Z,21.73
2018-06-04T20:22:10.874Z,21.70
2018-06-04T20:24:42.304Z,21.44
2018-06-04T20:27:13.845Z,21.23
2018-06-04T20:29:45.606Z,21.09
2018-06-04T20:32:17.610Z,21.12
2018-06-04T20:34:48.571Z,21.38
2018-06-04T20:37:20.855Z,21.47
2018-06-04T20:39:52.376Z,21.47
2018-06-04T20:42:23.760Z,21.33
2018-06-04T20:44:55.071Z,21.22
2018-06-04T20:47:26.285Z,21.15
2018-06-04T20:49:57.492Z,20.90
2018-06-04T20:52:28.598Z,21.01
2018-06-04T20:54:59.847Z,21.04
2018-06-04T20:57:31.374Z,20.96
2018-06-04T21:00:03.840Z,21.01
2018-06-04T21:02:36.199Z,20.95
2018-06-04T21:05:07.860Z,20.88
2018-06-04T21:07:40.295Z,20.56
2018-06-04T21:10:11.381Z,20.81
2018-06-04T21:12:42.408Z,20.67
2018-06-04T21:15:13.436Z,20.65
2018-06-04T21:17:44.699Z,20.69
2018-06-04T21:20:15.741Z,20.67
2018-06-04T21:22:47.038Z,20.57
2018-06-04T21:25:18.184Z,20.53
2018-06-04T21:27:49.657Z,20.51
2018-06-04T21:30:20.445Z,20.48
2018-06-04T21:32:51.406Z,20.44
2018-06-04T21:35:22.452Z,20.49
2018-06-04T21:37:53.634Z,20.47
2018-06-04T21:40:24.850Z,20.45
2018-06-04T21:42:56.221Z,20.50
2018-06-04T21:45:27.435Z,20.38
2018-06-04T21:48:02.092Z,20.34
2018-06-04T21:50:33.532Z,20.31
2018-06-04T21:53:04.616Z,20.24
2018-06-04T21:55:35.833Z,20.20
2018-06-04T21:58:07.611Z,20.17
2018-06-04T22:00:56.190Z,20.11
2018-06-04T22:03:29.768Z,19.91
2018-06-04T22:06:01.181Z,19.62
2018-06-04T22:08:32.578Z,19.33
2018-06-04T22:11:06.321Z,18.27
2018-06-04T22:13:37.800Z,17.85
2018-06-04T22:16:15.326Z,18.02
2018-06-04T22:18:46.754Z,17.83
2018-06-04T22:21:17.985Z,17.89
2018-06-04T22:23:49.092Z,17.90
2018-06-04T22:26:20.291Z,18.46
2018-06-04T22:28:51.815Z,18.57
2018-06-04T22:31:23.001Z,19.04
2018-06-04T22:33:54.230Z,19.21
2018-06-04T22:36:25.387Z,19.19
2018-06-04T22:38:56.650Z,19.26
2018-06-04T22:41:29.713Z,19.23
2018-06-04T22:44:03.256Z,19.33
2018-06-04T22:46:34.844Z,19.22
2018-06-04T22:49:06.879Z,19.20
2018-06-04T22:51:37.892Z,19.14
2018-06-04T22:54:08.945Z,19.06
2018-06-04T22:56:40.041Z,18.99
2018-06-04T22:59:11.166Z,18.97
2018-06-04T23:01:42.373Z,18.79
2018-06-04T23:04:27.469Z,18.90
2018-06-04T23:06:58.676Z,18.63
2018-06-04T23:09:29.796Z,18.56
2018-06-04T23:12:01.020Z,18.46
2018-06-04T23:14:32.196Z,18.70
2018-06-04T23:17:15.596Z,18.75
2018-06-04T23:19:46.909Z,18.61
2018-06-04T23:22:18.126Z,18.42
2018-06-04T23:24:49.410Z,17.89
2018-06-04T23:27:20.560Z,17.37
2018-06-04T23:29:52.147Z,17.59
2018-06-04T23:32:23.164Z,18.09
2018-06-04T23:34:54.656Z,18.43
2018-06-04T23:37:25.657Z,18.41
2018-06-04T23:39:56.687Z,18.48
2018-06-04T23:42:27.894Z,18.39
2018-06-04T23:44:59.144Z,18.31
2018-06-04T23:47:30.447Z,18.01
2018-06-04T23:50:01.516Z,18.07
2018-06-04T23:52:36.668Z,17.96
2018-06-04T23:55:08.008Z,18.04
2018-06-04T23:57:39.306Z,18.16
